sensor_id;sensor_type;location;lat;lon;timestamp;P1;durP1;ratioP1;P2;durP2;ratioP2
36137;SDS011;22194;50.046;21.954;2022-11-20T00:01:33;90.50;;;47.80;;
36137;SDS011;22194;50.046;21.954;2022-11-20T00:04:02;96.30;;;48.70;;
36137;SDS011;22194;50.046;21.954;2022-11-20T00:06:30;92.30;;;45.70;;
36137;SDS011;22194;50.046;21.954;2022-11-20T00:09:00;93.70;;;47.50;;
36137;SDS011;22194;50.046;21.954;2022-11-20T00:11:29;92.50;;;44.80;;
36137;SDS011;22194;50.046;21.954;2022-11-20T00:14:00;86.20;;;43.60;;
36137;SDS011;22194;50.046;21.954;2022-11-20T00:16:31;82.60;;;40.10;;
36137;SDS011;22194;50.046;21.954;2022-11-20T00:19:01;79.40;;;39.60;;
36137;SDS011;22194;50.046;21.954;2022-11-20T00:21:30;75.80;;;37.10;;
36137;SDS011;22194;50.046;21.954;2022-11-20T00:23:59;82.60;;;40.30;;
36137;SDS011;22194;50.046;21.954;2022-11-20T00:26:28;79.40;;;38.20;;
36137;SDS011;22194;50.046;21.954;2022-11-20T00:28:58;85.90;;;40.60;;
36137;SDS011;22194;50.046;21.954;2022-11-20T00:31:29;82.70;;;40.20;;
36137;SDS011;22194;50.046;21.954;2022-11-20T00:33:58;81.30;;;40.70;;
36137;SDS011;22194;50.046;21.954;2022-11-20T00:36:27;81.20;;;42.20;;
36137;SDS011;22194;50.046;21.954;2022-11-20T00:38:59;75.70;;;37.90;;
36137;SDS011;22194;50.046;21.954;2022-11-20T00:41:28;66.60;;;35.30;;
36137;SDS011;22194;50.046;21.954;2022-11-20T00:43:58;69.30;;;34.60;;
36137;SDS011;22194;50.046;21.954;2022-11-20T00:46:26;70.40;;;33.40;;
36137;SDS011;22194;50.046;21.954;2022-11-20T00:48:56;68.10;;;35.10;;
36137;SDS011;22194;50.046;21.954;2022-11-20T00:51:26;68.90;;;35.70;;
36137;SDS011;22194;50.046;21.954;2022-11-20T00:53:56;71.30;;;35.30;;
36137;SDS011;22194;50.046;21.954;2022-11-20T00:56:26;69.70;;;35.30;;
36137;SDS011;22194;50.046;21.954;2022-11-20T00:58:59;73.60;;;37.60;;
36137;SDS011;22194;50.046;21.954;2022-11-20T01:01:28;69.90;;;35.40;;
36137;SDS011;22194;50.046;21.954;2022-11-20T01:03:59;74.60;;;36.10;;
36137;SDS011;22194;50.046;21.954;2022-11-20T01:06:30;75.80;;;37.10;;
36137;SDS011;22194;50.046;21.954;2022-11-20T01:09:04;69.10;;;35.30;;
36137;SDS011;22194;50.046;21.954;2022-11-20T01:11:36;69.10;;;34.80;;
36137;SDS011;22194;50.046;21.954;2022-11-20T01:14:10;63.60;;;31.00;;
36137;SDS011;22194;50.046;21.954;2022-11-20T01:16:50;62.80;;;30.60;;
36137;SDS011;22194;50.046;21.954;2022-11-20T01:19:20;65.90;;;32.20;;
36137;SDS011;22194;50.046;21.954;2022-11-20T01:21:52;65.10;;;31.90;;
36137;SDS011;22194;50.046;21.954;2022-11-20T01:24:21;69.90;;;35.60;;
36137;SDS011;22194;50.046;21.954;2022-11-20T01:26:51;67.40;;;34.20;;
36137;SDS011;22194;50.046;21.954;2022-11-20T01:29:22;68.30;;;33.80;;
36137;SDS011;22194;50.046;21.954;2022-11-20T01:31:52;67.00;;;33.10;;
36137;SDS011;22194;50.046;21.954;2022-11-20T01:34:20;67.40;;;35.50;;
36137;SDS011;22194;50.046;21.954;2022-11-20T01:36:50;63.60;;;33.10;;
36137;SDS011;22194;50.046;21.954;2022-11-20T01:39:21;65.80;;;31.00;;
36137;SDS011;22194;50.046;21.954;2022-11-20T01:41:54;63.50;;;31.90;;
36137;SDS011;22194;50.046;21.954;2022-11-20T01:44:51;63.60;;;29.80;;
36137;SDS011;22194;50.046;21.954;2022-11-20T01:47:27;57.20;;;28.90;;
36137;SDS011;22194;50.046;21.954;2022-11-20T01:50:23;58.00;;;27.30;;
36137;SDS011;22194;50.046;21.954;2022-11-20T01:53:01;44.80;;;22.80;;
36137;SDS011;22194;50.046;21.954;2022-11-20T01:55:43;60.50;;;28.90;;
36137;SDS011;22194;50.046;21.954;2022-11-20T01:58:20;62.80;;;31.60;;
36137;SDS011;22194;50.046;21.954;2022-11-20T02:03:22;60.10;;;30.60;;
36137;SDS011;22194;50.046;21.954;2022-11-20T02:08:52;57.20;;;28.80;;
36137;SDS011;22194;50.046;21.954;2022-11-20T02:11:22;62.10;;;29.40;;
36137;SDS011;22194;50.046;21.954;2022-11-20T02:13:50;57.20;;;27.00;;
36137;SDS011;22194;50.046;21.954;2022-11-20T02:16:20;57.50;;;28.70;;
36137;SDS011;22194;50.046;21.954;2022-11-20T02:18:52;62.30;;;29.90;;
36137;SDS011;22194;50.046;21.954;2022-11-20T02:21:28;58.40;;;29.90;;
36137;SDS011;22194;50.046;21.954;2022-11-20T02:26:41;92.40;;;45.40;;
36137;SDS011;22194;50.046;21.954;2022-11-20T02:29:23;100.70;;;50.20;;
36137;SDS011;22194;50.046;21.954;2022-11-20T02:31:53;103.20;;;50.20;;
36137;SDS011;22194;50.046;21.954;2022-11-20T02:34:23;116.10;;;55.60;;
36137;SDS011;22194;50.046;21.954;2022-11-20T02:36:51;105.80;;;54.90;;
36137;SDS011;22194;50.046;21.954;2022-11-20T02:39:21;116.60;;;56.90;;
36137;SDS011;22194;50.046;21.954;2022-11-20T02:41:53;103.60;;;53.70;;
36137;SDS011;22194;50.046;21.954;2022-11-20T02:44:23;95.10;;;49.30;;
36137;SDS011;22194;50.046;21.954;2022-11-20T02:46:56;94.60;;;48.50;;
36137;SDS011;22194;50.046;21.954;2022-11-20T02:49:26;97.60;;;49.20;;
36137;SDS011;22194;50.046;21.954;2022-11-20T02:51:54;99.20;;;49.60;;
36137;SDS011;22194;50.046;21.954;2022-11-20T02:54:22;104.10;;;50.00;;
36137;SDS011;22194;50.046;21.954;2022-11-20T02:56:52;95.40;;;47.40;;
36137;SDS011;22194;50.046;21.954;2022-11-20T02:59:20;100.90;;;51.10;;
36137;SDS011;22194;50.046;21.954;2022-11-20T03:01:50;104.40;;;51.70;;
36137;SDS011;22194;50.046;21.954;2022-11-20T03:04:21;104.60;;;51.00;;
36137;SDS011;22194;50.046;21.954;2022-11-20T03:06:49;97.80;;;48.10;;
36137;SDS011;22194;50.046;21.954;2022-11-20T03:09:17;92.60;;;46.10;;
36137;SDS011;22194;50.046;21.954;2022-11-20T03:11:46;99.30;;;50.50;;
36137;SDS011;22194;50.046;21.954;2022-11-20T03:14:16;96.40;;;44.80;;
36137;SDS011;22194;50.046;21.954;2022-11-20T03:16:44;96.40;;;47.20;;
36137;SDS011;22194;50.046;21.954;2022-11-20T03:19:12;87.30;;;44.50;;
36137;SDS011;22194;50.046;21.954;2022-11-20T03:21:41;94.50;;;45.60;;
36137;SDS011;22194;50.046;21.954;2022-11-20T03:24:09;92.20;;;46.10;;
36137;SDS011;22194;50.046;21.954;2022-11-20T03:26:37;97.70;;;48.80;;
36137;SDS011;22194;50.046;21.954;2022-11-20T03:29:08;90.20;;;45.20;;
36137;SDS011;22194;50.046;21.954;2022-11-20T03:31:36;87.80;;;42.50;;
36137;SDS011;22194;50.046;21.954;2022-11-20T03:34:08;89.90;;;45.10;;
36137;SDS011;22194;50.046;21.954;2022-11-20T03:36:39;96.20;;;45.50;;
36137;SDS011;22194;50.046;21.954;2022-11-20T03:39:09;86.80;;;43.60;;
36137;SDS011;22194;50.046;21.954;2022-11-20T03:41:39;81.80;;;41.60;;
36137;SDS011;22194;50.046;21.954;2022-11-20T03:44:10;85.40;;;43.90;;
36137;SDS011;22194;50.046;21.954;2022-11-20T03:46:40;83.50;;;42.50;;
36137;SDS011;22194;50.046;21.954;2022-11-20T03:49:08;81.70;;;41.70;;
36137;SDS011;22194;50.046;21.954;2022-11-20T03:51:36;79.00;;;39.30;;
36137;SDS011;22194;50.046;21.954;2022-11-20T03:54:05;81.30;;;41.30;;
36137;SDS011;22194;50.046;21.954;2022-11-20T03:56:37;76.40;;;36.60;;
36137;SDS011;22194;50.046;21.954;2022-11-20T03:59:09;75.90;;;39.80;;
36137;SDS011;22194;50.046;21.954;2022-11-20T04:01:39;73.90;;;33.80;;
36137;SDS011;22194;50.046;21.954;2022-11-20T04:04:14;77.30;;;36.20;;
36137;SDS011;22194;50.046;21.954;2022-11-20T04:06:42;68.70;;;36.10;;
36137;SDS011;22194;50.046;21.954;2022-11-20T04:09:10;81.60;;;41.40;;
36137;SDS011;22194;50.046;21.954;2022-11-20T04:11:39;84.80;;;42.80;;
36137;SDS011;22194;50.046;21.954;2022-11-20T04:14:15;84.40;;;44.20;;
36137;SDS011;22194;50.046;21.954;2022-11-20T04:16:45;105.40;;;50.00;;
36137;SDS011;22194;50.046;21.954;2022-11-20T04:19:14;101.80;;;50.70;;
36137;SDS011;22194;50.046;21.954;2022-11-20T04:21:44;120.80;;;55.20;;
36137;SDS011;22194;50.046;21.954;2022-11-20T04:24:12;126.10;;;57.00;;
36137;SDS011;22194;50.046;21.954;2022-11-20T04:26:40;115.40;;;58.10;;
36137;SDS011;22194;50.046;21.954;2022-11-20T04:29:10;113.40;;;56.30;;
36137;SDS011;22194;50.046;21.954;2022-11-20T04:31:40;109.50;;;54.20;;
36137;SDS011;22194;50.046;21.954;2022-11-20T04:34:10;105.40;;;51.20;;
36137;SDS011;22194;50.046;21.954;2022-11-20T04:36:40;105.80;;;51.20;;
36137;SDS011;22194;50.046;21.954;2022-11-20T04:39:11;105.50;;;51.10;;
36137;SDS011;22194;50.046;21.954;2022-11-20T04:41:48;110.90;;;52.00;;
36137;SDS011;22194;50.046;21.954;2022-11-20T04:44:36;110.10;;;52.50;;
36137;SDS011;22194;50.046;21.954;2022-11-20T04:47:03;104.50;;;51.80;;
36137;SDS011;22194;50.046;21.954;2022-11-20T04:49:31;114.80;;;51.60;;
36137;SDS011;22194;50.046;21.954;2022-11-20T04:52:02;146.30;;;63.70;;
36137;SDS011;22194;50.046;21.954;2022-11-20T04:54:30;127.50;;;61.50;;
36137;SDS011;22194;50.046;21.954;2022-11-20T04:56:57;131.20;;;61.70;;
36137;SDS011;22194;50.046;21.954;2022-11-20T04:59:25;117.00;;;54.20;;
36137;SDS011;22194;50.046;21.954;2022-11-20T05:01:55;122.70;;;56.90;;
36137;SDS011;22194;50.046;21.954;2022-11-20T05:04:24;118.30;;;56.90;;
36137;SDS011;22194;50.046;21.954;2022-11-20T05:06:52;107.50;;;51.30;;
36137;SDS011;22194;50.046;21.954;2022-11-20T05:09:20;103.00;;;49.20;;
36137;SDS011;22194;50.046;21.954;2022-11-20T05:11:49;91.30;;;42.80;;
36137;SDS011;22194;50.046;21.954;2022-11-20T05:14:19;89.40;;;41.40;;
36137;SDS011;22194;50.046;21.954;2022-11-20T05:16:48;96.10;;;46.50;;
36137;SDS011;22194;50.046;21.954;2022-11-20T05:19:16;88.10;;;41.70;;
36137;SDS011;22194;50.046;21.954;2022-11-20T05:21:46;84.20;;;43.00;;
36137;SDS011;22194;50.046;21.954;2022-11-20T05:24:13;80.60;;;40.40;;
36137;SDS011;22194;50.046;21.954;2022-11-20T05:26:41;71.90;;;36.10;;
36137;SDS011;22194;50.046;21.954;2022-11-20T05:29:11;68.00;;;33.50;;
36137;SDS011;22194;50.046;21.954;2022-11-20T05:31:40;64.70;;;30.50;;
36137;SDS011;22194;50.046;21.954;2022-11-20T05:34:11;61.00;;;30.40;;
36137;SDS011;22194;50.046;21.954;2022-11-20T05:36:39;66.10;;;30.70;;
36137;SDS011;22194;50.046;21.954;2022-11-20T05:39:07;65.90;;;31.50;;
36137;SDS011;22194;50.046;21.954;2022-11-20T05:41:37;63.50;;;31.20;;
36137;SDS011;22194;50.046;21.954;2022-11-20T05:44:05;66.40;;;32.00;;
36137;SDS011;22194;50.046;21.954;2022-11-20T05:46:33;65.60;;;32.70;;
36137;SDS011;22194;50.046;21.954;2022-11-20T05:49:01;66.90;;;31.30;;
36137;SDS011;22194;50.046;21.954;2022-11-20T05:51:31;66.60;;;32.80;;
36137;SDS011;22194;50.046;21.954;2022-11-20T05:53:59;64.30;;;31.50;;
36137;SDS011;22194;50.046;21.954;2022-11-20T05:56:27;62.40;;;30.10;;
36137;SDS011;22194;50.046;21.954;2022-11-20T05:58:55;61.10;;;29.80;;
36137;SDS011;22194;50.046;21.954;2022-11-20T06:01:25;58.70;;;27.20;;
36137;SDS011;22194;50.046;21.954;2022-11-20T06:03:54;60.10;;;27.80;;
36137;SDS011;22194;50.046;21.954;2022-11-20T06:06:24;55.80;;;26.70;;
36137;SDS011;22194;50.046;21.954;2022-11-20T06:08:56;53.40;;;25.10;;
36137;SDS011;22194;50.046;21.954;2022-11-20T06:11:26;57.10;;;28.60;;
36137;SDS011;22194;50.046;21.954;2022-11-20T06:13:54;59.10;;;28.70;;
36137;SDS011;22194;50.046;21.954;2022-11-20T06:16:22;64.80;;;30.30;;
36137;SDS011;22194;50.046;21.954;2022-11-20T06:18:50;59.40;;;29.80;;
36137;SDS011;22194;50.046;21.954;2022-11-20T06:21:20;75.50;;;38.90;;
36137;SDS011;22194;50.046;21.954;2022-11-20T06:23:51;83.30;;;42.20;;
36137;SDS011;22194;50.046;21.954;2022-11-20T06:26:24;83.50;;;39.70;;
36137;SDS011;22194;50.046;21.954;2022-11-20T06:28:55;87.70;;;40.70;;
36137;SDS011;22194;50.046;21.954;2022-11-20T06:31:25;83.00;;;40.40;;
36137;SDS011;22194;50.046;21.954;2022-11-20T06:33:55;89.80;;;43.60;;
36137;SDS011;22194;50.046;21.954;2022-11-20T06:36:23;95.60;;;49.10;;
36137;SDS011;22194;50.046;21.954;2022-11-20T06:38:51;99.80;;;47.80;;
36137;SDS011;22194;50.046;21.954;2022-11-20T06:41:21;100.50;;;49.70;;
36137;SDS011;22194;50.046;21.954;2022-11-20T06:43:51;129.40;;;62.00;;
36137;SDS011;22194;50.046;21.954;2022-11-20T06:46:21;101.20;;;49.30;;
36137;SDS011;22194;50.046;21.954;2022-11-20T06:48:50;100.50;;;45.40;;
36137;SDS011;22194;50.046;21.954;2022-11-20T06:51:18;97.00;;;46.10;;
36137;SDS011;22194;50.046;21.954;2022-11-20T06:53:46;97.20;;;44.90;;
36137;SDS011;22194;50.046;21.954;2022-11-20T06:56:16;88.60;;;41.20;;
36137;SDS011;22194;50.046;21.954;2022-11-20T06:58:44;118.60;;;58.80;;
36137;SDS011;22194;50.046;21.954;2022-11-20T07:01:13;131.00;;;64.80;;
36137;SDS011;22194;50.046;21.954;2022-11-20T07:03:43;142.30;;;70.40;;
36137;SDS011;22194;50.046;21.954;2022-11-20T07:06:15;152.90;;;73.80;;
36137;SDS011;22194;50.046;21.954;2022-11-20T07:08:43;227.30;;;104.70;;
36137;SDS011;22194;50.046;21.954;2022-11-20T07:11:11;289.60;;;128.40;;
36137;SDS011;22194;50.046;21.954;2022-11-20T07:13:41;294.20;;;132.20;;
36137;SDS011;22194;50.046;21.954;2022-11-20T07:16:09;201.00;;;98.70;;
36137;SDS011;22194;50.046;21.954;2022-11-20T07:18:37;209.80;;;100.90;;
36137;SDS011;22194;50.046;21.954;2022-11-20T07:21:05;222.30;;;103.30;;
36137;SDS011;22194;50.046;21.954;2022-11-20T07:23:39;219.00;;;105.20;;
36137;SDS011;22194;50.046;21.954;2022-11-20T07:26:08;228.30;;;109.00;;
36137;SDS011;22194;50.046;21.954;2022-11-20T07:28:38;204.50;;;101.80;;
36137;SDS011;22194;50.046;21.954;2022-11-20T07:31:06;211.40;;;105.90;;
36137;SDS011;22194;50.046;21.954;2022-11-20T07:33:44;109.30;;;53.60;;
36137;SDS011;22194;50.046;21.954;2022-11-20T07:36:12;96.30;;;49.90;;
36137;SDS011;22194;50.046;21.954;2022-11-20T07:38:39;133.80;;;67.50;;
36137;SDS011;22194;50.046;21.954;2022-11-20T07:41:07;121.70;;;62.30;;
36137;SDS011;22194;50.046;21.954;2022-11-20T07:43:35;88.40;;;46.20;;
36137;SDS011;22194;50.046;21.954;2022-11-20T07:46:07;83.90;;;42.80;;
36137;SDS011;22194;50.046;21.954;2022-11-20T07:48:37;72.50;;;36.80;;
36137;SDS011;22194;50.046;21.954;2022-11-20T07:51:08;87.40;;;43.80;;
36137;SDS011;22194;50.046;21.954;2022-11-20T07:53:36;84.50;;;42.10;;
36137;SDS011;22194;50.046;21.954;2022-11-20T07:56:04;95.70;;;48.90;;
36137;SDS011;22194;50.046;21.954;2022-11-20T07:58:34;101.90;;;51.30;;
36137;SDS011;22194;50.046;21.954;2022-11-20T08:01:03;132.10;;;66.80;;
36137;SDS011;22194;50.046;21.954;2022-11-20T08:03:33;132.90;;;74.50;;
36137;SDS011;22194;50.046;21.954;2022-11-20T08:06:01;142.30;;;73.20;;
36137;SDS011;22194;50.046;21.954;2022-11-20T08:08:29;148.10;;;74.40;;
36137;SDS011;22194;50.046;21.954;2022-11-20T08:11:01;135.50;;;69.50;;
36137;SDS011;22194;50.046;21.954;2022-11-20T08:13:48;126.60;;;68.30;;
36137;SDS011;22194;50.046;21.954;2022-11-20T08:16:34;118.90;;;64.00;;
36137;SDS011;22194;50.046;21.954;2022-11-20T08:19:02;131.00;;;68.40;;
36137;SDS011;22194;50.046;21.954;2022-11-20T08:21:30;119.40;;;66.80;;
36137;SDS011;22194;50.046;21.954;2022-11-20T08:26:35;114.80;;;59.80;;
36137;SDS011;22194;50.046;21.954;2022-11-20T08:29:06;117.30;;;63.70;;
36137;SDS011;22194;50.046;21.954;2022-11-20T08:31:35;116.50;;;62.60;;
36137;SDS011;22194;50.046;21.954;2022-11-20T08:34:23;111.00;;;57.50;;
36137;SDS011;22194;50.046;21.954;2022-11-20T08:36:51;110.40;;;57.90;;
36137;SDS011;22194;50.046;21.954;2022-11-20T08:39:18;89.80;;;47.80;;
36137;SDS011;22194;50.046;21.954;2022-11-20T08:41:50;72.10;;;39.80;;
36137;SDS011;22194;50.046;21.954;2022-11-20T08:44:18;70.30;;;37.40;;
36137;SDS011;22194;50.046;21.954;2022-11-20T08:46:46;67.60;;;37.00;;
36137;SDS011;22194;50.046;21.954;2022-11-20T08:49:16;68.50;;;37.40;;
36137;SDS011;22194;50.046;21.954;2022-11-20T08:51:44;70.90;;;38.80;;
36137;SDS011;22194;50.046;21.954;2022-11-20T08:54:12;75.50;;;39.40;;
36137;SDS011;22194;50.046;21.954;2022-11-20T08:56:42;66.60;;;35.30;;
36137;SDS011;22194;50.046;21.954;2022-11-20T08:59:10;72.90;;;40.20;;
36137;SDS011;22194;50.046;21.954;2022-11-20T09:01:58;75.40;;;42.10;;
36137;SDS011;22194;50.046;21.954;2022-11-20T09:04:26;70.10;;;39.70;;
36137;SDS011;22194;50.046;21.954;2022-11-20T09:06:54;77.00;;;42.90;;
36137;SDS011;22194;50.046;21.954;2022-11-20T09:09:22;77.60;;;42.20;;
36137;SDS011;22194;50.046;21.954;2022-11-20T09:11:52;79.10;;;43.50;;
36137;SDS011;22194;50.046;21.954;2022-11-20T09:14:22;70.20;;;40.30;;
36137;SDS011;22194;50.046;21.954;2022-11-20T09:16:57;73.70;;;41.00;;
36137;SDS011;22194;50.046;21.954;2022-11-20T09:19:25;77.00;;;41.50;;
36137;SDS011;22194;50.046;21.954;2022-11-20T09:22:04;72.80;;;41.00;;
36137;SDS011;22194;50.046;21.954;2022-11-20T09:24:32;68.90;;;35.20;;
36137;SDS011;22194;50.046;21.954;2022-11-20T09:27:03;64.60;;;38.10;;
36137;SDS011;22194;50.046;21.954;2022-11-20T09:29:32;66.90;;;37.20;;
36137;SDS011;22194;50.046;21.954;2022-11-20T09:32:00;71.70;;;40.80;;
36137;SDS011;22194;50.046;21.954;2022-11-20T09:34:31;72.70;;;38.20;;
36137;SDS011;22194;50.046;21.954;2022-11-20T09:36:59;71.20;;;38.90;;
36137;SDS011;22194;50.046;21.954;2022-11-20T09:39:34;64.90;;;35.60;;
36137;SDS011;22194;50.046;21.954;2022-11-20T09:42:20;59.90;;;34.40;;
36137;SDS011;22194;50.046;21.954;2022-11-20T09:50:43;64.50;;;35.80;;
36137;SDS011;22194;50.046;21.954;2022-11-20T09:53:30;79.80;;;42.50;;
36137;SDS011;22194;50.046;21.954;2022-11-20T09:56:08;71.50;;;40.10;;
36137;SDS011;22194;50.046;21.954;2022-11-20T09:58:42;67.30;;;38.90;;
36137;SDS011;22194;50.046;21.954;2022-11-20T10:01:20;73.10;;;41.10;;
36137;SDS011;22194;50.046;21.954;2022-11-20T10:06:53;64.50;;;37.40;;
36137;SDS011;22194;50.046;21.954;2022-11-20T10:09:53;67.00;;;39.80;;
36137;SDS011;22194;50.046;21.954;2022-11-20T10:20:20;82.40;;;46.00;;
36137;SDS011;22194;50.046;21.954;2022-11-20T10:23:32;88.80;;;50.30;;
36137;SDS011;22194;50.046;21.954;2022-11-20T10:26:19;92.50;;;51.90;;
36137;SDS011;22194;50.046;21.954;2022-11-20T10:31:47;98.40;;;54.90;;
36137;SDS011;22194;50.046;21.954;2022-11-20T10:34:22;98.40;;;55.40;;
36137;SDS011;22194;50.046;21.954;2022-11-20T10:37:08;95.70;;;51.70;;
36137;SDS011;22194;50.046;21.954;2022-11-20T10:40:05;90.00;;;52.20;;
36137;SDS011;22194;50.046;21.954;2022-11-20T10:42:48;80.30;;;46.80;;
36137;SDS011;22194;50.046;21.954;2022-11-20T10:48:16;73.70;;;40.80;;
36137;SDS011;22194;50.046;21.954;2022-11-20T10:50:55;75.60;;;41.90;;
36137;SDS011;22194;50.046;21.954;2022-11-20T10:53:44;79.80;;;45.10;;
36137;SDS011;22194;50.046;21.954;2022-11-20T10:59:38;86.90;;;47.30;;
36137;SDS011;22194;50.046;21.954;2022-11-20T11:01:55;89.10;;;48.20;;
36137;SDS011;22194;50.046;21.954;2022-11-20T11:04:33;83.50;;;44.30;;
36137;SDS011;22194;50.046;21.954;2022-11-20T11:07:19;83.90;;;46.50;;
36137;SDS011;22194;50.046;21.954;2022-11-20T11:12:24;87.90;;;45.60;;
36137;SDS011;22194;50.046;21.954;2022-11-20T11:14:56;88.30;;;49.80;;
36137;SDS011;22194;50.046;21.954;2022-11-20T11:19:59;85.90;;;49.60;;
36137;SDS011;22194;50.046;21.954;2022-11-20T11:22:56;88.00;;;48.80;;
36137;SDS011;22194;50.046;21.954;2022-11-20T11:30:45;81.70;;;44.70;;
36137;SDS011;22194;50.046;21.954;2022-11-20T11:33:19;74.70;;;41.90;;
36137;SDS011;22194;50.046;21.954;2022-11-20T11:35:55;71.10;;;41.30;;
36137;SDS011;22194;50.046;21.954;2022-11-20T11:38:34;67.90;;;40.90;;
36137;SDS011;22194;50.046;21.954;2022-11-20T11:41:07;66.30;;;37.80;;
36137;SDS011;22194;50.046;21.954;2022-11-20T11:43:52;70.10;;;38.20;;
36137;SDS011;22194;50.046;21.954;2022-11-20T11:46:43;61.30;;;36.30;;
36137;SDS011;22194;50.046;21.954;2022-11-20T11:49:21;65.40;;;38.10;;
36137;SDS011;22194;50.046;21.954;2022-11-20T11:57:20;67.70;;;40.10;;
36137;SDS011;22194;50.046;21.954;2022-11-20T12:00:10;70.40;;;41.10;;
36137;SDS011;22194;50.046;21.954;2022-11-20T12:05:21;69.30;;;41.50;;
36137;SDS011;22194;50.046;21.954;2022-11-20T12:10:45;68.50;;;41.30;;
36137;SDS011;22194;50.046;21.954;2022-11-20T12:15:57;78.40;;;45.70;;
36137;SDS011;22194;50.046;21.954;2022-11-20T12:18:27;78.10;;;48.90;;
36137;SDS011;22194;50.046;21.954;2022-11-20T12:21:21;75.40;;;47.40;;
36137;SDS011;22194;50.046;21.954;2022-11-20T12:41:06;75.50;;;43.90;;
36137;SDS011;22194;50.046;21.954;2022-11-20T12:44:22;74.70;;;44.70;;
36137;SDS011;22194;50.046;21.954;2022-11-20T12:53:08;87.20;;;52.50;;
36137;SDS011;22194;50.046;21.954;2022-11-20T12:55:56;90.50;;;52.70;;
36137;SDS011;22194;50.046;21.954;2022-11-20T12:58:44;84.80;;;49.30;;
36137;SDS011;22194;50.046;21.954;2022-11-20T13:01:45;81.30;;;48.30;;
36137;SDS011;22194;50.046;21.954;2022-11-20T13:07:12;90.80;;;52.30;;
36137;SDS011;22194;50.046;21.954;2022-11-20T13:09:44;92.10;;;53.40;;
36137;SDS011;22194;50.046;21.954;2022-11-20T13:12:20;88.90;;;49.70;;
36137;SDS011;22194;50.046;21.954;2022-11-20T13:15:15;87.80;;;50.20;;
36137;SDS011;22194;50.046;21.954;2022-11-20T13:17:56;91.30;;;54.50;;
36137;SDS011;22194;50.046;21.954;2022-11-20T13:20:26;103.20;;;58.30;;
36137;SDS011;22194;50.046;21.954;2022-11-20T13:22:57;103.80;;;60.40;;
36137;SDS011;22194;50.046;21.954;2022-11-20T13:25:28;104.40;;;57.90;;
36137;SDS011;22194;50.046;21.954;2022-11-20T13:28:05;97.60;;;56.40;;
36137;SDS011;22194;50.046;21.954;2022-11-20T13:30:56;98.10;;;57.30;;
36137;SDS011;22194;50.046;21.954;2022-11-20T13:33:33;93.00;;;56.00;;
36137;SDS011;22194;50.046;21.954;2022-11-20T13:36:20;95.60;;;54.90;;
36137;SDS011;22194;50.046;21.954;2022-11-20T13:38:58;96.90;;;53.60;;
36137;SDS011;22194;50.046;21.954;2022-11-20T13:41:29;81.00;;;49.40;;
36137;SDS011;22194;50.046;21.954;2022-11-20T13:46:37;88.50;;;48.40;;
36137;SDS011;22194;50.046;21.954;2022-11-20T14:00:57;81.80;;;47.10;;
36137;SDS011;22194;50.046;21.954;2022-11-20T14:03:46;81.90;;;47.10;;
36137;SDS011;22194;50.046;21.954;2022-11-20T14:06:43;80.70;;;47.10;;
36137;SDS011;22194;50.046;21.954;2022-11-20T14:09:28;80.30;;;45.60;;
36137;SDS011;22194;50.046;21.954;2022-11-20T14:11:58;76.20;;;45.00;;
36137;SDS011;22194;50.046;21.954;2022-11-20T14:14:28;80.70;;;45.60;;
36137;SDS011;22194;50.046;21.954;2022-11-20T14:17:07;82.90;;;46.60;;
36137;SDS011;22194;50.046;21.954;2022-11-20T14:19:59;81.80;;;46.50;;
36137;SDS011;22194;50.046;21.954;2022-11-20T14:22:32;82.60;;;47.20;;
36137;SDS011;22194;50.046;21.954;2022-11-20T14:25:18;85.00;;;46.70;;
36137;SDS011;22194;50.046;21.954;2022-11-20T14:27:52;81.90;;;47.80;;
36137;SDS011;22194;50.046;21.954;2022-11-20T14:30:25;83.70;;;49.10;;
36137;SDS011;22194;50.046;21.954;2022-11-20T14:32:56;89.70;;;48.30;;
36137;SDS011;22194;50.046;21.954;2022-11-20T14:35:30;88.00;;;48.60;;
36137;SDS011;22194;50.046;21.954;2022-11-20T14:38:04;88.80;;;47.90;;
36137;SDS011;22194;50.046;21.954;2022-11-20T14:40:38;85.00;;;48.30;;
36137;SDS011;22194;50.046;21.954;2022-11-20T14:43:27;81.80;;;49.20;;
36137;SDS011;22194;50.046;21.954;2022-11-20T14:46:00;92.40;;;52.30;;
36137;SDS011;22194;50.046;21.954;2022-11-20T14:48:37;98.50;;;52.20;;
36137;SDS011;22194;50.046;21.954;2022-11-20T14:51:37;88.50;;;50.50;;
36137;SDS011;22194;50.046;21.954;2022-11-20T14:54:14;90.10;;;49.90;;
36137;SDS011;22194;50.046;21.954;2022-11-20T14:56:59;87.20;;;49.40;;
36137;SDS011;22194;50.046;21.954;2022-11-20T14:59:32;84.10;;;49.10;;
36137;SDS011;22194;50.046;21.954;2022-11-20T15:02:07;86.20;;;47.70;;
36137;SDS011;22194;50.046;21.954;2022-11-20T15:10:03;86.00;;;48.10;;
36137;SDS011;22194;50.046;21.954;2022-11-20T15:12:40;82.30;;;45.80;;
36137;SDS011;22194;50.046;21.954;2022-11-20T15:15:31;79.20;;;44.40;;
36137;SDS011;22194;50.046;21.954;2022-11-20T15:18:01;78.00;;;43.10;;
36137;SDS011;22194;50.046;21.954;2022-11-20T15:20:31;82.00;;;46.30;;
36137;SDS011;22194;50.046;21.954;2022-11-20T15:23:08;83.30;;;47.30;;
36137;SDS011;22194;50.046;21.954;2022-11-20T15:25:39;75.60;;;44.90;;
36137;SDS011;22194;50.046;21.954;2022-11-20T15:28:30;78.70;;;43.80;;
36137;SDS011;22194;50.046;21.954;2022-11-20T15:31:01;80.30;;;43.90;;
36137;SDS011;22194;50.046;21.954;2022-11-20T15:33:31;80.90;;;43.10;;
36137;SDS011;22194;50.046;21.954;2022-11-20T15:36:01;97.20;;;51.30;;
36137;SDS011;22194;50.046;21.954;2022-11-20T15:38:29;123.00;;;66.40;;
36137;SDS011;22194;50.046;21.954;2022-11-20T15:40:57;123.30;;;66.00;;
36137;SDS011;22194;50.046;21.954;2022-11-20T15:43:26;108.30;;;56.30;;
36137;SDS011;22194;50.046;21.954;2022-11-20T15:48:42;94.30;;;51.30;;
36137;SDS011;22194;50.046;21.954;2022-11-20T15:53:58;80.70;;;44.90;;
36137;SDS011;22194;50.046;21.954;2022-11-20T15:56:27;85.10;;;47.60;;
36137;SDS011;22194;50.046;21.954;2022-11-20T15:58:55;84.80;;;45.20;;
36137;SDS011;22194;50.046;21.954;2022-11-20T16:01:23;82.50;;;44.30;;
36137;SDS011;22194;50.046;21.954;2022-11-20T16:03:53;91.20;;;48.40;;
36137;SDS011;22194;50.046;21.954;2022-11-20T16:06:21;77.30;;;44.70;;
36137;SDS011;22194;50.046;21.954;2022-11-20T16:08:48;85.70;;;48.20;;
36137;SDS011;22194;50.046;21.954;2022-11-20T16:11:16;84.50;;;48.00;;
36137;SDS011;22194;50.046;21.954;2022-11-20T16:13:45;86.10;;;48.40;;
36137;SDS011;22194;50.046;21.954;2022-11-20T16:16:35;88.80;;;49.50;;
36137;SDS011;22194;50.046;21.954;2022-11-20T16:19:09;86.00;;;47.30;;
36137;SDS011;22194;50.046;21.954;2022-11-20T16:21:40;89.80;;;48.70;;
36137;SDS011;22194;50.046;21.954;2022-11-20T16:24:11;84.30;;;46.30;;
36137;SDS011;22194;50.046;21.954;2022-11-20T16:26:41;85.40;;;45.10;;
36137;SDS011;22194;50.046;21.954;2022-11-20T16:29:10;86.00;;;48.40;;
36137;SDS011;22194;50.046;21.954;2022-11-20T16:31:39;94.30;;;51.30;;